createdAt,value
2022-08-17T00:01:37.864Z,17.55
2022-08-17T00:04:19.135Z,20.33
2022-08-17T00:06:46.052Z,22.92
2022-08-17T00:09:18.322Z,19.88
2022-08-17T00:12:40.695Z,20.70
2022-08-17T00:14:35.002Z,19.98
2022-08-17T00:17:03.670Z,17.80
2022-08-17T00:19:30.327Z,17.92
2022-08-17T00:22:35.053Z,17.63
2022-08-17T00:24:46.961Z,19.60
2022-08-17T00:27:13.504Z,19.63
2022-08-17T00:29:40.119Z,22.92
2022-08-17T00:33:14.778Z,17.02
2022-08-17T00:34:53.399Z,20.25
2022-08-17T00:37:19.993Z,16.45
2022-08-17T00:39:46.554Z,14.15
2022-08-17T00:42:19.013Z,16.75
2022-08-17T00:44:46.215Z,17.40
2022-08-17T00:47:13.925Z,15.63
2022-08-17T00:49:40.547Z,18.27
2022-08-17T00:52:16.549Z,19.02
2022-08-17T00:54:46.952Z,17.65
2022-08-17T00:57:20.040Z,15.10
2022-08-17T00:59:55.926Z,16.80
2022-08-17T01:02:40.391Z,16.10
2022-08-17T01:08:57.479Z,14.90
2022-08-17T01:11:24.588Z,16.58
2022-08-17T01:13:51.380Z,16.23
2022-08-17T01:16:27.896Z,19.33
2022-08-17T01:19:00.832Z,20.88
2022-08-17T01:21:46.884Z,13.63
2022-08-17T01:24:13.575Z,12.73
2022-08-17T01:26:42.236Z,15.32
2022-08-17T01:29:09.859Z,14.73
2022-08-17T01:31:41.477Z,14.45
2022-08-17T01:34:10.202Z,12.60
2022-08-17T01:36:39.489Z,14.68
2022-08-17T01:39:11.698Z,19.08
2022-08-17T01:41:40.978Z,13.93
2022-08-17T01:44:09.753Z,15.20
2022-08-17T01:46:36.978Z,15.68
2022-08-17T01:49:08.834Z,14.40
2022-08-17T01:51:35.548Z,14.35
2022-08-17T01:54:05.397Z,17.63
2022-08-17T01:56:33.695Z,15.02
2022-08-17T01:59:00.209Z,14.55
2022-08-17T02:01:29.252Z,18.13
2022-08-17T02:04:00.955Z,15.32
2022-08-17T02:06:52.522Z,19.25
2022-08-17T02:09:23.974Z,16.00
2022-08-17T02:11:54.361Z,19.58
2022-08-17T02:14:21.553Z,16.30
2022-08-17T02:16:48.062Z,17.35
2022-08-17T02:19:16.761Z,14.93
2022-08-17T02:21:46.133Z,16.95
2022-08-17T02:25:00.858Z,14.98
2022-08-17T02:27:07.735Z,16.40
2022-08-17T02:29:34.417Z,14.80
2022-08-17T02:32:01.824Z,14.80
2022-08-17T02:34:28.874Z,13.50
2022-08-17T02:36:55.565Z,13.82
2022-08-17T02:39:22.075Z,19.38
2022-08-17T02:41:48.931Z,19.75
2022-08-17T02:44:39.443Z,14.93
2022-08-17T02:47:03.525Z,14.27
2022-08-17T02:49:30.181Z,17.88
2022-08-17T02:51:58.522Z,20.45
2022-08-17T02:54:40.290Z,13.15
2022-08-17T02:57:09.784Z,20.65
2022-08-17T02:59:36.627Z,21.42
2022-08-17T03:02:04.304Z,20.50
2022-08-17T03:04:31.202Z,17.05
2022-08-17T03:07:02.140Z,19.42
2022-08-17T03:09:28.631Z,18.60
2022-08-17T03:11:56.081Z,20.05
2022-08-17T03:14:26.257Z,14.43
2022-08-17T03:16:52.987Z,18.27
2022-08-17T03:19:19.546Z,22.05
2022-08-17T03:21:46.032Z,20.90
2022-08-17T03:24:21.502Z,18.13
2022-08-17T03:26:55.071Z,22.40
2022-08-17T03:29:21.561Z,20.08
2022-08-17T03:31:49.687Z,20.02
2022-08-17T03:34:17.351Z,17.30
2022-08-17T03:36:44.002Z,20.83
2022-08-17T03:39:10.854Z,18.90
2022-08-17T03:41:38.819Z,24.65
2022-08-17T03:44:05.343Z,20.73
2022-08-17T03:46:50.003Z,21.92
2022-08-17T03:49:34.992Z,18.58
2022-08-17T03:52:21.307Z,25.05
2022-08-17T03:55:06.356Z,19.20
2022-08-17T03:57:32.912Z,18.95
2022-08-17T03:59:59.803Z,16.50
2022-08-17T04:02:32.162Z,17.98
2022-08-17T04:04:59.609Z,19.63
2022-08-17T04:07:28.256Z,21.02
2022-08-17T04:09:55.133Z,22.83
2022-08-17T04:12:23.623Z,20.08
2022-08-17T04:14:53.445Z,21.58
2022-08-17T04:17:27.282Z,21.87
2022-08-17T04:19:55.037Z,17.70
2022-08-17T04:22:32.817Z,19.50
2022-08-17T04:25:17.897Z,23.17
2022-08-17T04:27:44.565Z,16.05
2022-08-17T04:30:12.183Z,20.83
2022-08-17T04:33:11.805Z,20.95
2022-08-17T04:35:41.854Z,24.35
2022-08-17T04:38:11.987Z,22.05
2022-08-17T04:40:57.333Z,19.92
2022-08-17T04:43:26.603Z,23.45
2022-08-17T04:45:57.259Z,22.08
2022-08-17T04:48:36.863Z,28.63
2022-08-17T04:51:10.528Z,23.70
2022-08-17T04:53:38.826Z,21.33
2022-08-17T04:56:05.917Z,20.88
2022-08-17T04:58:32.907Z,25.67
2022-08-17T05:00:59.851Z,26.45
2022-08-17T05:03:26.433Z,64.20
2022-08-17T05:05:53.668Z,260.70
2022-08-17T05:08:20.968Z,201.38
2022-08-17T05:10:48.497Z,144.35
2022-08-17T05:13:18.872Z,105.40
2022-08-17T05:15:48.128Z,62.03
2022-08-17T05:18:16.741Z,38.03
2022-08-17T05:20:43.729Z,53.40
2022-08-17T05:23:13.099Z,78.38
2022-08-17T05:25:43.347Z,58.08
2022-08-17T05:28:15.159Z,46.47
2022-08-17T05:30:43.667Z,53.67
2022-08-17T05:33:14.151Z,39.30
2022-08-17T05:35:43.994Z,41.35
2022-08-17T05:38:10.895Z,44.60
2022-08-17T05:40:38.288Z,51.28
2022-08-17T05:43:17.010Z,55.75
2022-08-17T05:45:55.177Z,35.40
2022-08-17T05:48:35.677Z,34.70
2022-08-17T05:51:44.074Z,22.13
2022-08-17T05:54:26.384Z,29.02
2022-08-17T05:57:00.092Z,31.15
2022-08-17T05:59:48.689Z,21.08
2022-08-17T06:02:50.790Z,30.52
2022-08-17T06:05:36.966Z,27.25
2022-08-17T06:08:09.936Z,18.30
2022-08-17T06:10:46.935Z,26.52
2022-08-17T06:13:25.324Z,22.00
2022-08-17T06:16:33.152Z,20.70
2022-08-17T06:19:16.987Z,18.98
2022-08-17T06:21:47.679Z,18.88
2022-08-17T06:24:37.647Z,18.13
2022-08-17T06:27:31.173Z,21.85
2022-08-17T06:30:09.285Z,22.17
2022-08-17T06:32:43.580Z,16.15
2022-08-17T06:35:27.780Z,22.98
2022-08-17T06:38:10.394Z,25.50
2022-08-17T06:41:13.159Z,19.85
2022-08-17T06:44:06.500Z,18.75
2022-08-17T06:46:41.381Z,25.00
2022-08-17T06:49:21.866Z,21.25
2022-08-17T06:52:00.185Z,19.05
2022-08-17T06:54:56.444Z,13.02
2022-08-17T06:57:29.445Z,25.88
2022-08-17T06:59:59.347Z,17.48
2022-08-17T07:02:51.544Z,16.17
2022-08-17T07:05:23.676Z,16.17
2022-08-17T07:08:04.631Z,21.20
2022-08-17T07:10:54.812Z,13.23
2022-08-17T07:13:21.229Z,13.35
2022-08-17T07:15:56.954Z,10.10
2022-08-17T07:18:26.214Z,9.80
2022-08-17T07:20:59.773Z,9.95
2022-08-17T07:23:37.791Z,10.65
2022-08-17T07:26:09.097Z,14.98
2022-08-17T07:31:04.838Z,13.68
2022-08-17T07:33:34.150Z,11.50
2022-08-17T07:36:01.547Z,15.18
2022-08-17T07:38:35.531Z,13.45
2022-08-17T07:41:06.525Z,10.65
2022-08-17T07:43:41.946Z,15.82
2022-08-17T07:46:30.251Z,15.30
2022-08-17T07:49:17.980Z,11.98
2022-08-17T07:51:44.369Z,13.23
2022-08-17T07:54:21.361Z,9.70
2022-08-17T07:57:20.175Z,11.18
2022-08-17T08:00:12.734Z,7.15
2022-08-17T08:02:45.984Z,14.15
2022-08-17T08:05:44.292Z,11.10
2022-08-17T08:08:33.231Z,10.38
2022-08-17T08:11:02.852Z,9.70
2022-08-17T08:13:32.199Z,7.70
2022-08-17T08:16:24.663Z,9.30
2022-08-17T08:18:58.017Z,8.00
2022-08-17T08:21:49.079Z,12.18
2022-08-17T08:24:24.687Z,6.13
2022-08-17T08:27:15.941Z,13.52
2022-08-17T08:29:47.315Z,15.20
2022-08-17T08:32:24.456Z,16.30
2022-08-17T08:35:02.608Z,8.95
2022-08-17T08:37:42.884Z,10.05
2022-08-17T08:40:27.889Z,10.35
2022-08-17T08:43:09.355Z,11.93
2022-08-17T08:45:35.879Z,11.48
2022-08-17T08:48:56.395Z,17.60
2022-08-17T08:51:27.689Z,6.97
2022-08-17T08:54:15.783Z,12.88
2022-08-17T09:00:02.987Z,10.55
2022-08-17T09:02:44.549Z,10.77
2022-08-17T09:05:28.088Z,7.97
2022-08-17T09:07:58.618Z,13.90
2022-08-17T09:10:56.010Z,5.38
2022-08-17T09:13:40.735Z,10.20
2022-08-17T09:16:18.189Z,9.38
2022-08-17T09:19:03.606Z,11.18
2022-08-17T09:21:52.661Z,7.43
2022-08-17T09:24:43.385Z,7.88
2022-08-17T09:27:18.615Z,7.22
2022-08-17T09:29:51.551Z,9.68
2022-08-17T09:32:42.617Z,11.65
2022-08-17T09:38:00.426Z,3.45
2022-08-17T09:40:45.392Z,6.03
2022-08-17T09:43:36.387Z,12.68
2022-08-17T09:46:11.404Z,11.25
2022-08-17T09:48:44.693Z,5.53
2022-08-17T09:51:22.984Z,5.50
2022-08-17T09:53:50.632Z,7.03
2022-08-17T09:56:42.307Z,5.63
2022-08-17T09:59:38.212Z,10.55
2022-08-17T10:02:25.158Z,6.97
2022-08-17T10:04:57.877Z,5.00
2022-08-17T10:07:57.605Z,22.75
2022-08-17T10:10:32.488Z,7.00
2022-08-17T10:13:18.408Z,9.38
2022-08-17T10:15:56.212Z,5.13
2022-08-17T10:18:22.648Z,6.03
2022-08-17T10:21:19.897Z,6.63
2022-08-17T10:24:11.329Z,3.25
2022-08-17T10:26:55.774Z,9.52
2022-08-17T10:29:28.926Z,6.68
2022-08-17T10:32:04.126Z,5.80
2022-08-17T10:35:04.299Z,4.35
2022-08-17T10:37:57.310Z,7.70
2022-08-17T10:40:36.830Z,7.88
2022-08-17T10:43:32.945Z,4.63
2022-08-17T10:46:30.198Z,6.13
2022-08-17T10:49:16.659Z,5.93
2022-08-17T10:51:45.905Z,6.93
2022-08-17T10:54:24.581Z,4.72
2022-08-17T10:56:53.947Z,4.95
2022-08-17T10:59:35.514Z,7.25
2022-08-17T11:02:04.832Z,3.67
2022-08-17T11:05:00.453Z,4.68
2022-08-17T11:07:48.300Z,9.48
2022-08-17T11:10:52.262Z,4.45
2022-08-17T11:13:25.894Z,6.95
2022-08-17T11:16:08.367Z,9.60
2022-08-17T11:19:05.125Z,5.72
2022-08-17T11:21:59.026Z,5.07
2022-08-17T11:24:40.455Z,6.43
2022-08-17T11:27:20.003Z,11.07
2022-08-17T11:30:02.767Z,5.72
2022-08-17T11:32:47.627Z,8.27
2022-08-17T11:35:21.174Z,6.18
2022-08-17T11:37:52.251Z,8.93
2022-08-17T11:43:00.359Z,4.85
2022-08-17T11:45:33.039Z,6.05
2022-08-17T11:48:34.658Z,12.18
2022-08-17T11:51:33.698Z,8.30
2022-08-17T11:54:31.040Z,3.53
2022-08-17T11:56:51.782Z,5.35
2022-08-17T11:59:32.667Z,8.30
2022-08-17T12:04:33.360Z,6.13
2022-08-17T12:07:21.179Z,4.97
2022-08-17T12:09:50.878Z,6.75
2022-08-17T12:12:22.464Z,8.50
2022-08-17T12:15:11.491Z,4.45
2022-08-17T12:17:42.659Z,4.85
2022-08-17T12:20:23.348Z,11.02
2022-08-17T12:23:01.033Z,8.47
2022-08-17T12:25:34.286Z,9.23
2022-08-17T12:28:06.291Z,8.02
2022-08-17T12:30:35.246Z,4.03
2022-08-17T12:33:01.795Z,6.90
2022-08-17T12:35:35.198Z,8.30
2022-08-17T12:38:03.410Z,6.65
2022-08-17T12:40:32.170Z,5.15
2022-08-17T12:43:01.796Z,13.55
2022-08-17T12:45:31.238Z,7.65
2022-08-17T12:48:04.077Z,5.22
2022-08-17T12:50:32.185Z,5.63
2022-08-17T12:53:02.485Z,7.72
2022-08-17T12:55:35.648Z,3.83
2022-08-17T12:58:02.474Z,6.47
2022-08-17T13:00:31.695Z,7.45
2022-08-17T13:03:19.109Z,8.20
2022-08-17T13:06:10.422Z,3.20
2022-08-17T13:08:43.053Z,7.03
2022-08-17T13:11:20.126Z,7.72
2022-08-17T13:13:56.103Z,7.05
2022-08-17T13:16:30.139Z,8.80
2022-08-17T13:19:20.213Z,7.88
2022-08-17T13:22:11.613Z,5.72
2022-08-17T13:24:38.957Z,4.53
2022-08-17T13:27:09.962Z,4.10
2022-08-17T13:32:13.013Z,7.88
2022-08-17T13:35:13.031Z,5.80
2022-08-17T13:37:41.395Z,8.55
2022-08-17T13:40:09.214Z,6.80
2022-08-17T13:42:53.081Z,4.50
2022-08-17T13:45:36.754Z,7.47
2022-08-17T13:48:30.914Z,9.40
2022-08-17T13:50:57.322Z,5.93
2022-08-17T13:53:33.043Z,5.63
2022-08-17T13:56:07.321Z,5.70
2022-08-17T13:58:57.654Z,8.98
2022-08-17T14:01:32.541Z,8.40
2022-08-17T14:04:01.963Z,6.10
2022-08-17T14:06:51.828Z,12.38
2022-08-17T14:09:26.832Z,4.40
2022-08-17T14:11:54.821Z,10.15
2022-08-17T14:14:23.307Z,10.45
2022-08-17T14:16:51.652Z,4.75
2022-08-17T14:19:18.902Z,6.35
2022-08-17T14:21:46.530Z,10.35
2022-08-17T14:24:22.880Z,4.97
2022-08-17T14:26:52.010Z,5.50
2022-08-17T14:29:20.138Z,5.18
2022-08-17T14:31:53.260Z,4.85
2022-08-17T14:34:21.973Z,5.18
2022-08-17T14:36:48.846Z,5.43
2022-08-17T14:39:17.308Z,8.98
2022-08-17T14:41:43.874Z,14.38
2022-08-17T14:44:12.579Z,12.20
2022-08-17T14:46:40.830Z,11.82
2022-08-17T14:49:09.230Z,7.95
2022-08-17T14:51:43.741Z,8.27
2022-08-17T14:54:11.565Z,10.18
2022-08-17T14:57:23.437Z,8.68
2022-08-17T14:59:44.857Z,3.55
2022-08-17T15:02:11.767Z,3.53
2022-08-17T15:04:41.979Z,5.63
2022-08-17T15:07:11.518Z,8.75
2022-08-17T15:09:37.981Z,9.48
2022-08-17T15:12:06.542Z,4.22
2022-08-17T15:15:18.080Z,7.70
2022-08-17T15:17:46.137Z,8.98
2022-08-17T15:20:16.040Z,8.00
2022-08-17T15:22:44.316Z,14.38
2022-08-17T15:25:12.164Z,6.32
2022-08-17T15:27:39.004Z,7.85
2022-08-17T15:30:07.170Z,10.25
2022-08-17T15:32:38.005Z,14.07
2022-08-17T15:35:06.906Z,11.10
2022-08-17T15:37:33.450Z,9.30
2022-08-17T15:40:03.135Z,8.45
2022-08-17T15:42:29.873Z,8.00
2022-08-17T15:44:56.438Z,6.20
2022-08-17T15:47:23.340Z,9.90
2022-08-17T15:49:50.795Z,5.97
2022-08-17T15:52:24.150Z,5.30
2022-08-17T15:54:56.282Z,4.72
2022-08-17T15:57:25.869Z,8.10
2022-08-17T15:59:55.321Z,5.20
2022-08-17T16:03:16.082Z,4.88
2022-08-17T16:05:21.726Z,10.20
2022-08-17T16:07:51.415Z,8.20
2022-08-17T16:10:19.211Z,6.93
2022-08-17T16:12:47.624Z,9.38
2022-08-17T16:15:14.848Z,11.77
2022-08-17T16:17:41.519Z,5.65
2022-08-17T16:20:20.344Z,6.50
2022-08-17T16:22:49.146Z,9.68
2022-08-17T16:25:20.796Z,10.52
2022-08-17T16:27:50.456Z,7.28
2022-08-17T16:30:17.837Z,3.83
2022-08-17T16:32:45.832Z,5.32
2022-08-17T16:35:16.145Z,7.13
2022-08-17T16:37:45.395Z,8.37
2022-08-17T16:40:13.548Z,6.10
2022-08-17T16:42:40.657Z,4.80
2022-08-17T16:45:13.207Z,7.60
2022-08-17T16:47:41.810Z,10.02
2022-08-17T16:50:11.688Z,8.60
2022-08-17T16:52:38.990Z,9.70
2022-08-17T16:55:07.992Z,4.80
2022-08-17T16:57:37.301Z,8.75
2022-08-17T17:00:16.837Z,4.97
2022-08-17T17:02:49.598Z,5.65
2022-08-17T17:05:19.298Z,7.75
2022-08-17T17:08:09.028Z,6.72
2022-08-17T17:10:38.776Z,7.22
2022-08-17T17:13:13.109Z,7.88
2022-08-17T17:16:17.585Z,10.48
2022-08-17T17:19:10.089Z,8.95
2022-08-17T17:22:00.932Z,10.02
2022-08-17T17:24:52.443Z,7.47
2022-08-17T17:27:21.607Z,15.73
2022-08-17T17:30:01.732Z,11.10
2022-08-17T17:32:38.071Z,8.98
2022-08-17T17:35:17.106Z,17.10
2022-08-17T17:37:46.449Z,10.52
2022-08-17T17:40:21.403Z,10.32
2022-08-17T17:42:51.634Z,8.10
2022-08-17T17:45:26.053Z,13.00
2022-08-17T17:47:53.247Z,14.15
2022-08-17T17:50:27.858Z,11.18
2022-08-17T17:53:35.026Z,19.98
2022-08-17T17:56:43.812Z,18.38
2022-08-17T17:59:41.839Z,8.90
2022-08-17T18:02:51.858Z,14.38
2022-08-17T18:05:37.035Z,13.40
2022-08-17T18:08:34.068Z,14.77
2022-08-17T18:11:25.988Z,13.23
2022-08-17T18:14:39.589Z,15.27
2022-08-17T18:17:06.374Z,18.23
2022-08-17T18:19:33.230Z,13.40
2022-08-17T18:22:14.187Z,18.30
2022-08-17T18:24:44.149Z,14.20
2022-08-17T18:27:50.294Z,11.95
2022-08-17T18:30:16.846Z,12.60
2022-08-17T18:32:46.466Z,16.52
2022-08-17T18:35:14.246Z,27.55
2022-08-17T18:37:55.888Z,20.27
2022-08-17T18:40:35.049Z,24.02
2022-08-17T18:43:12.593Z,20.40
2022-08-17T18:45:47.101Z,19.50
2022-08-17T18:48:22.657Z,19.55
2022-08-17T18:50:53.374Z,23.15
2022-08-17T18:53:37.528Z,19.10
2022-08-17T18:56:30.479Z,16.00
2022-08-17T18:59:06.134Z,13.90
2022-08-17T19:01:52.739Z,19.63
2022-08-17T19:04:37.903Z,17.65
2022-08-17T19:07:12.570Z,16.83
2022-08-17T19:09:45.500Z,12.40
2022-08-17T19:12:27.228Z,17.63
2022-08-17T19:14:56.273Z,11.82
2022-08-17T19:17:31.966Z,14.30
2022-08-17T19:20:12.503Z,17.17
2022-08-17T19:22:46.879Z,17.10
2022-08-17T19:25:18.774Z,13.27
2022-08-17T19:27:57.784Z,13.05
2022-08-17T19:30:25.338Z,16.15
2022-08-17T19:32:53.011Z,15.77
2022-08-17T19:35:24.631Z,18.40
2022-08-17T19:38:12.997Z,19.48
2022-08-17T19:40:52.627Z,22.00
2022-08-17T19:43:54.688Z,19.77
2022-08-17T19:46:35.578Z,10.35
2022-08-17T19:49:34.481Z,17.42
2022-08-17T19:52:22.152Z,18.02
2022-08-17T19:55:08.924Z,16.95
2022-08-17T19:57:59.484Z,16.38
2022-08-17T20:00:26.093Z,16.67
2022-08-17T20:03:16.697Z,18.23
2022-08-17T20:06:13.712Z,15.20
2022-08-17T20:09:03.553Z,14.23
2022-08-17T20:11:49.195Z,24.63
2022-08-17T20:14:21.849Z,14.82
2022-08-17T20:16:48.445Z,12.02
2022-08-17T20:19:29.163Z,16.55
2022-08-17T20:22:17.608Z,17.08
2022-08-17T20:24:54.165Z,12.55
2022-08-17T20:27:45.352Z,11.13
2022-08-17T20:30:33.198Z,16.30
2022-08-17T20:33:02.230Z,13.75
2022-08-17T20:35:38.570Z,15.02
2022-08-17T20:38:08.498Z,11.00
2022-08-17T20:40:57.390Z,13.77
2022-08-17T20:43:29.792Z,12.68
2022-08-17T20:46:10.045Z,14.32
2022-08-17T20:48:44.512Z,15.45
2022-08-17T20:51:21.489Z,14.25
2022-08-17T20:53:48.036Z,14.43
2022-08-17T20:56:43.097Z,14.07
2022-08-17T20:59:30.275Z,8.70
2022-08-17T21:02:08.057Z,10.23
2022-08-17T21:04:51.293Z,15.80
2022-08-17T21:07:42.674Z,10.63
2022-08-17T21:10:33.988Z,11.23
2022-08-17T21:13:21.982Z,7.73
2022-08-17T21:16:15.067Z,15.23
2022-08-17T21:18:49.319Z,12.00
2022-08-17T21:21:25.923Z,13.80
2022-08-17T21:24:01.613Z,9.57
2022-08-17T21:26:50.418Z,8.73
2022-08-17T21:29:31.753Z,12.73
2022-08-17T21:31:59.179Z,14.00
2022-08-17T21:34:30.968Z,11.05
2022-08-17T21:37:19.865Z,13.65
2022-08-17T21:39:54.590Z,12.48
2022-08-17T21:42:31.602Z,11.35
2022-08-17T21:45:10.882Z,10.68
2022-08-17T21:47:45.213Z,11.02
2022-08-17T21:50:20.241Z,12.02
2022-08-17T21:52:48.436Z,11.75
2022-08-17T21:55:29.941Z,9.95
2022-08-17T21:58:13.518Z,9.13
2022-08-17T22:00:44.334Z,18.40
2022-08-17T22:03:23.717Z,15.80
2022-08-17T22:05:51.546Z,11.57
2022-08-17T22:08:20.629Z,15.57
2022-08-17T22:10:50.988Z,12.65
2022-08-17T22:13:17.785Z,15.80
2022-08-17T22:16:15.640Z,19.42
2022-08-17T22:18:54.319Z,11.98
2022-08-17T22:21:22.576Z,11.73
2022-08-17T22:24:04.305Z,13.52
2022-08-17T22:27:01.622Z,10.50
2022-08-17T22:30:00.549Z,12.20
2022-08-17T22:32:37.894Z,19.42
2022-08-17T22:35:28.654Z,12.55
2022-08-17T22:38:19.949Z,20.50
2022-08-17T22:40:49.783Z,10.38
2022-08-17T22:43:18.172Z,14.35
2022-08-17T22:45:53.611Z,14.40
2022-08-17T22:48:23.393Z,11.77
2022-08-17T22:51:14.168Z,16.23
2022-08-17T22:54:11.942Z,13.43
2022-08-17T22:57:05.435Z,18.95
2022-08-17T22:59:59.575Z,17.10
2022-08-17T23:02:31.541Z,13.52
2022-08-17T23:05:13.226Z,13.30
2022-08-17T23:07:45.758Z,16.38
2022-08-17T23:10:13.484Z,11.70
2022-08-17T23:12:40.423Z,15.70
2022-08-17T23:15:17.060Z,13.88
2022-08-17T23:17:45.040Z,14.65
2022-08-17T23:20:13.866Z,12.80
2022-08-17T23:22:51.370Z,9.80
2022-08-17T23:25:33.579Z,12.63
2022-08-17T23:28:01.864Z,16.55
2022-08-17T23:30:33.592Z,12.73
2022-08-17T23:33:15.665Z,17.92
2022-08-17T23:35:43.918Z,13.48
2022-08-17T23:38:11.892Z,13.43
2022-08-17T23:40:40.137Z,13.55
2022-08-17T23:43:23.709Z,9.98
2022-08-17T23:45:52.193Z,19.15
2022-08-17T23:48:35.678Z,15.25
2022-08-17T23:51:12.173Z,10.30
2022-08-17T23:53:44.004Z,14.32
2022-08-17T23:56:11.413Z,12.68
2022-08-17T23:58:40.128Z,12.38
